Time;durP1;ratioP1;P1;durP2;ratioP2;P2;SDS_P1;SDS_P2;PMS_P1;PMS_P2;Temp;Humidity;BMP_temperature;BMP_pressure;BME280_temperature;BME280_humidity;BME280_pressure;Samples;Min_cycle;Max_cycle;Signal;HPM_P1;HPM_P2
2021/05/14 00:00:16;;;;;;;3.43;2.80;;;14.60;87.20;;;;;;5112636;28;20200;-70
2021/05/14 00:02:42;;;;;;;5.40;2.73;;;14.60;88.20;;;;;;5115188;28;20669;-70
2021/05/14 00:05:10;;;;;;;3.70;2.60;;;14.60;87.70;;;;;;5095752;28;20212;-70
2021/05/14 00:07:37;;;;;;;5.30;2.83;;;14.60;87.90;;;;;;5105937;28;20215;-70
2021/05/14 00:10:05;;;;;;;5.10;2.90;;;14.60;88.50;;;;;;5103251;28;20645;-70
2021/05/14 00:12:31;;;;;;;7.33;3.07;;;14.50;88.90;;;;;;5101916;28;20209;-70
2021/05/14 00:14:58;;;;;;;8.30;2.80;;;14.50;89.60;;;;;;5098023;28;20276;-71
2021/05/14 00:17:24;;;;;;;3.93;2.60;;;14.50;89.70;;;;;;5113369;28;20245;-71
2021/05/14 00:19:50;;;;;;;4.27;2.80;;;14.40;90.20;;;;;;5108946;28;20212;-70
2021/05/14 00:22:18;;;;;;;5.17;2.63;;;14.40;90.40;;;;;;5106172;28;20656;-71
2021/05/14 00:24:44;;;;;;;6.90;2.80;;;14.40;90.80;;;;;;5100179;28;20205;-70
2021/05/14 00:27:11;;;;;;;4.00;2.70;;;14.40;91.00;;;;;;5095139;28;20259;-71
2021/05/14 00:29:37;;;;;;;6.73;3.00;;;14.30;91.20;;;;;;5093477;28;20241;-70
2021/05/14 00:32:04;;;;;;;4.90;3.33;;;14.30;91.40;;;;;;5110398;28;20303;-70
2021/05/14 00:34:30;;;;;;;3.53;2.47;;;14.30;91.60;;;;;;5095436;28;20235;-70
2021/05/14 00:36:56;;;;;;;5.03;3.00;;;14.30;91.80;;;;;;5110916;28;20315;-69
2021/05/14 00:39:24;;;;;;;6.63;3.10;;;14.20;91.90;;;;;;5112175;28;20200;-69
2021/05/14 00:41:50;;;;;;;5.30;3.07;;;14.20;92.20;;;;;;5105083;28;20196;-69
2021/05/14 00:44:31;;;;;;;4.10;3.13;;;14.20;92.40;;;;;;5105173;28;20208;-69
2021/05/14 00:46:58;;;;;;;4.50;2.77;;;14.20;92.70;;;;;;5098627;28;20258;-69
2021/05/14 00:49:25;;;;;;;3.17;2.50;;;14.20;92.90;;;;;;5099717;27;20664;-70
2021/05/14 00:51:53;;;;;;;5.27;2.73;;;14.10;93.10;;;;;;5104290;27;20205;-70
2021/05/14 00:54:20;;;;;;;7.90;2.87;;;14.10;93.30;;;;;;5112138;28;20541;-69
2021/05/14 00:56:47;;;;;;;9.80;3.40;;;14.10;93.50;;;;;;5105389;28;20657;-69
2021/05/14 00:59:14;;;;;;;4.77;2.67;;;14.10;93.60;;;;;;5101036;28;20208;-69
2021/05/14 01:01:40;;;;;;;2.77;2.47;;;14.10;93.90;;;;;;5105560;28;20209;-71
2021/05/14 01:04:07;;;;;;;6.37;3.27;;;14.20;94.10;;;;;;5105125;28;20200;-70
2021/05/14 01:06:34;;;;;;;6.20;3.40;;;14.10;94.30;;;;;;5100292;28;20222;-70
2021/05/14 01:09:01;;;;;;;4.03;3.10;;;14.00;94.60;;;;;;5106140;28;20207;-70
2021/05/14 01:11:28;;;;;;;4.43;2.80;;;14.00;95.10;;;;;;5105923;28;20565;-71
2021/05/14 01:13:57;;;;;;;5.13;2.87;;;13.90;95.50;;;;;;5106363;28;20639;-71
2021/05/14 01:16:24;;;;;;;6.13;3.20;;;13.90;95.80;;;;;;5095183;28;20220;-70
2021/05/14 01:18:50;;;;;;;3.30;2.80;;;13.80;96.10;;;;;;5097624;28;20640;-71
2021/05/14 01:21:18;;;;;;;4.67;2.90;;;13.80;96.60;;;;;;5098633;28;20224;-71
2021/05/14 01:23:44;;;;;;;5.97;3.20;;;13.80;97.30;;;;;;5103311;28;20212;-71
2021/05/14 01:26:12;;;;;;;7.53;3.03;;;13.70;97.40;;;;;;5103026;28;20211;-71
2021/05/14 01:28:39;;;;;;;5.10;2.83;;;13.70;97.70;;;;;;5094109;28;20208;-70
2021/05/14 01:31:05;;;;;;;4.50;3.23;;;13.70;98.00;;;;;;5103735;28;20207;-70
2021/05/14 01:33:32;;;;;;;6.77;3.17;;;13.70;98.20;;;;;;5096512;28;20208;-70
2021/05/14 01:35:58;;;;;;;3.10;2.80;;;13.70;98.50;;;;;;5100069;28;20574;-71
2021/05/14 01:38:26;;;;;;;4.93;3.13;;;13.80;98.90;;;;;;5094161;28;20646;-71
2021/05/14 01:40:52;;;;;;;4.50;3.20;;;13.80;99.00;;;;;;5113334;28;20623;-70
2021/05/14 01:43:19;;;;;;;4.17;3.53;;;13.80;99.10;;;;;;5100124;28;20265;-71
2021/05/14 01:45:46;;;;;;;4.13;3.23;;;13.70;99.40;;;;;;5113770;28;20199;-70
2021/05/14 01:48:13;;;;;;;6.83;3.60;;;13.70;99.90;;;;;;5095088;28;20598;-70
2021/05/14 01:50:40;;;;;;;4.90;3.40;;;13.70;99.90;;;;;;5093935;28;20677;-70
2021/05/14 01:53:06;;;;;;;4.47;3.10;;;13.70;99.90;;;;;;5094251;28;20213;-70
2021/05/14 01:55:34;;;;;;;4.00;3.30;;;13.70;99.90;;;;;;5107351;28;20255;-70
2021/05/14 01:58:00;;;;;;;7.23;3.27;;;13.70;99.90;;;;;;5098388;28;20246;-71
2021/05/14 02:00:27;;;;;;;5.40;3.23;;;13.70;99.90;;;;;;5097878;28;20684;-71
2021/05/14 02:02:53;;;;;;;4.63;3.70;;;13.70;99.90;;;;;;5101737;28;20208;-71
2021/05/14 02:05:20;;;;;;;4.70;3.67;;;13.70;99.90;;;;;;5107044;28;20192;-71
2021/05/14 02:07:46;;;;;;;4.77;3.40;;;13.70;99.90;;;;;;5093499;28;20650;-71
2021/05/14 02:10:13;;;;;;;5.43;3.27;;;13.70;99.90;;;;;;5096070;28;20264;-71
2021/05/14 02:12:41;;;;;;;4.57;3.37;;;13.70;99.90;;;;;;5099119;28;20319;-71
2021/05/14 02:15:09;;;;;;;5.40;3.73;;;13.70;99.90;;;;;;5104040;28;20736;-71
2021/05/14 02:17:35;;;;;;;5.20;4.03;;;13.70;99.90;;;;;;5102571;28;20208;-72
2021/05/14 02:20:03;;;;;;;4.40;3.50;;;13.70;99.90;;;;;;5097990;28;20400;-71
2021/05/14 02:22:29;;;;;;;8.47;3.47;;;13.70;99.90;;;;;;5097504;28;20239;-70
2021/05/14 02:24:55;;;;;;;6.53;4.50;;;13.70;99.90;;;;;;5101832;28;20292;-71
2021/05/14 02:27:22;;;;;;;6.17;3.60;;;13.70;99.90;;;;;;5094227;28;20701;-71
2021/05/14 02:29:49;;;;;;;5.03;3.10;;;13.60;99.90;;;;;;5101329;28;20567;-71
2021/05/14 02:32:16;;;;;;;5.13;3.47;;;13.60;99.90;;;;;;5094743;28;20304;-72
2021/05/14 02:34:42;;;;;;;13.00;3.50;;;13.60;99.90;;;;;;5097323;28;20313;-72
2021/05/14 02:37:08;;;;;;;7.00;3.37;;;13.60;99.90;;;;;;5104274;28;20201;-71
2021/05/14 02:39:35;;;;;;;5.63;3.07;;;13.60;99.90;;;;;;5098813;28;20361;-70
2021/05/14 02:42:02;;;;;;;4.00;3.23;;;13.70;99.90;;;;;;5098942;28;20211;-71
2021/05/14 02:44:28;;;;;;;5.80;3.13;;;13.70;99.90;;;;;;5106776;28;20200;-71
2021/05/14 02:46:55;;;;;;;5.03;3.60;;;13.60;99.90;;;;;;5107800;28;20203;-70
2021/05/14 02:49:22;;;;;;;4.07;3.07;;;13.60;99.90;;;;;;5106560;28;20204;-71
2021/05/14 02:51:48;;;;;;;4.43;3.90;;;13.60;99.90;;;;;;5092905;28;20205;-71
2021/05/14 02:54:15;;;;;;;5.93;3.50;;;13.50;99.90;;;;;;5093182;28;20318;-71
2021/05/14 02:56:41;;;;;;;6.60;3.77;;;13.50;99.90;;;;;;5101871;28;20222;-71
2021/05/14 02:59:08;;;;;;;4.50;3.80;;;13.50;99.90;;;;;;5092287;28;20239;-71
2021/05/14 03:01:34;;;;;;;3.97;3.43;;;13.50;99.90;;;;;;5102054;28;20294;-71
2021/05/14 03:04:04;;;;;;;4.23;3.80;;;13.50;99.90;;;;;;5097463;28;20220;-71
2021/05/14 03:06:31;;;;;;;5.90;4.10;;;13.60;99.90;;;;;;5092548;28;20200;-72
2021/05/14 03:08:57;;;;;;;5.23;3.80;;;13.60;99.90;;;;;;5092249;28;20650;-72
2021/05/14 03:11:24;;;;;;;5.60;3.50;;;13.60;99.90;;;;;;5104185;28;20640;-71
2021/05/14 03:13:50;;;;;;;8.23;4.00;;;13.70;99.90;;;;;;5098766;28;20745;-71
2021/05/14 03:16:16;;;;;;;5.50;4.43;;;13.70;99.90;;;;;;5092916;28;20275;-71
2021/05/14 03:18:43;;;;;;;4.27;3.83;;;13.80;99.90;;;;;;5099860;28;20263;-70
2021/05/14 03:21:10;;;;;;;5.67;4.33;;;13.80;99.90;;;;;;5092890;28;20208;-71
2021/05/14 03:23:36;;;;;;;6.50;4.20;;;13.80;99.90;;;;;;5110190;28;20208;-70
2021/05/14 03:26:03;;;;;;;7.27;3.93;;;13.90;99.90;;;;;;5096038;28;20207;-70
2021/05/14 03:28:29;;;;;;;7.37;3.63;;;13.90;99.90;;;;;;5097158;28;20265;-70
2021/05/14 03:30:56;;;;;;;4.90;3.87;;;13.80;99.90;;;;;;5107373;28;20290;-71
2021/05/14 03:33:22;;;;;;;5.57;4.50;;;13.80;99.90;;;;;;5100065;27;20209;-71
2021/05/14 03:35:49;;;;;;;4.20;3.80;;;13.70;99.90;;;;;;5104867;28;20242;-72
2021/05/14 03:38:16;;;;;;;9.33;4.37;;;13.60;99.90;;;;;;5102014;28;20224;-71
2021/05/14 03:40:43;;;;;;;10.23;3.77;;;13.60;99.90;;;;;;5098432;28;20206;-70
2021/05/14 03:43:10;;;;;;;10.37;6.80;;;13.60;99.90;;;;;;5106018;28;20212;-71
2021/05/14 03:45:36;;;;;;;8.93;4.83;;;13.60;99.90;;;;;;5098718;28;20204;-71
2021/05/14 03:48:17;;;;;;;8.60;3.97;;;13.60;99.90;;;;;;5104325;28;20204;-70
2021/05/14 03:50:44;;;;;;;9.33;4.37;;;13.60;99.90;;;;;;5100376;28;20207;-71
2021/05/14 03:53:11;;;;;;;7.83;5.07;;;13.70;99.90;;;;;;5104507;28;20234;-71
2021/05/14 03:55:38;;;;;;;7.60;4.50;;;13.70;99.90;;;;;;5107247;28;20740;-72
2021/05/14 03:58:05;;;;;;;4.70;3.87;;;13.80;99.90;;;;;;5096080;28;20692;-72
2021/05/14 04:00:31;;;;;;;7.63;5.00;;;14.00;99.90;;;;;;5096478;28;20714;-71
2021/05/14 04:02:57;;;;;;;8.03;4.70;;;14.10;99.90;;;;;;5099615;28;20205;-72
2021/05/14 04:05:24;;;;;;;5.87;4.00;;;14.20;99.90;;;;;;5097999;28;20207;-70
2021/05/14 04:07:50;;;;;;;11.50;4.17;;;14.30;99.90;;;;;;5096321;28;20204;-71
2021/05/14 04:10:20;;;;;;;10.60;4.60;;;14.40;99.90;;;;;;5105535;28;20203;-71
2021/05/14 04:15:32;;;;;;;9.80;4.87;;;14.50;99.90;;;;;;5105780;28;20239;-70
2021/05/14 04:17:59;;;;;;;7.07;4.27;;;14.50;99.90;;;;;;5099123;28;20208;-71
2021/05/14 04:20:25;;;;;;;5.47;4.20;;;14.60;99.90;;;;;;5098666;28;20616;-71
2021/05/14 04:22:52;;;;;;;6.97;4.50;;;14.70;99.90;;;;;;5107380;28;20282;-71
2021/05/14 04:25:18;;;;;;;8.37;4.97;;;14.80;99.90;;;;;;5109387;28;20631;-70
2021/05/14 04:27:45;;;;;;;12.23;5.33;;;14.90;99.90;;;;;;5100280;28;20306;-71
2021/05/14 04:30:14;;;;;;;6.97;4.70;;;15.00;99.90;;;;;;5098633;28;20208;-71
2021/05/14 04:32:41;;;;;;;9.00;5.23;;;15.20;99.90;;;;;;5098734;28;20299;-70
2021/05/14 04:35:08;;;;;;;8.83;5.10;;;15.50;99.90;;;;;;5098631;28;20228;-71
2021/05/14 04:37:34;;;;;;;6.93;4.33;;;15.70;99.90;;;;;;5101978;28;20548;-71
2021/05/14 04:40:01;;;;;;;8.03;4.97;;;15.80;99.90;;;;;;5101659;28;20231;-71
2021/05/14 04:42:27;;;;;;;9.17;5.70;;;15.90;99.90;;;;;;5111977;28;20231;-71
2021/05/14 04:44:53;;;;;;;9.77;5.20;;;16.00;99.90;;;;;;5109280;28;20211;-70
2021/05/14 04:47:21;;;;;;;7.90;5.60;;;16.10;99.90;;;;;;5092829;28;20237;-71
2021/05/14 04:49:47;;;;;;;10.67;5.23;;;16.10;99.90;;;;;;5094121;28;20716;-70
2021/05/14 04:52:17;;;;;;;9.10;5.60;;;16.20;99.90;;;;;;5098766;28;20304;-72
2021/05/14 04:54:44;;;;;;;7.60;5.50;;;16.30;99.90;;;;;;5112230;28;20228;-70
2021/05/14 04:57:11;;;;;;;8.40;5.67;;;16.30;99.90;;;;;;5091714;28;20209;-72
2021/05/14 04:59:37;;;;;;;7.40;5.00;;;16.50;99.90;;;;;;5097899;28;20208;-71
2021/05/14 05:02:06;;;;;;;11.70;5.67;;;16.50;99.90;;;;;;5090134;28;20856;-70
2021/05/14 05:04:34;;;;;;;6.03;5.40;;;16.60;99.90;;;;;;5092045;28;20257;-71
2021/05/14 05:07:01;;;;;;;14.73;5.60;;;16.70;99.90;;;;;;5102326;28;20603;-71
2021/05/14 05:09:27;;;;;;;9.53;5.00;;;16.80;99.90;;;;;;5099672;28;20245;-70
2021/05/14 05:11:54;;;;;;;13.67;5.03;;;17.00;99.90;;;;;;5103718;28;20264;-71
2021/05/14 05:14:20;;;;;;;7.13;5.07;;;17.10;99.90;;;;;;5112226;28;20255;-70
2021/05/14 05:16:47;;;;;;;9.67;5.67;;;17.20;99.80;;;;;;5097875;28;20781;-71
2021/05/14 05:19:13;;;;;;;7.70;4.87;;;17.30;99.30;;;;;;5102644;28;20200;-71
2021/05/14 05:21:40;;;;;;;9.53;5.20;;;17.40;99.00;;;;;;5107849;28;20291;-70
2021/05/14 05:24:08;;;;;;;8.18;5.22;;;17.40;98.70;;;;;;5102941;28;20287;-71
2021/05/14 05:26:34;;;;;;;7.50;5.23;;;17.60;98.50;;;;;;5093173;28;20229;-70
2021/05/14 05:29:01;;;;;;;7.23;5.40;;;17.70;98.20;;;;;;5091854;28;20200;-70
2021/05/14 05:31:27;;;;;;;7.78;5.60;;;17.80;97.90;;;;;;5107930;28;20732;-71
2021/05/14 05:33:54;;;;;;;10.77;5.80;;;17.90;97.40;;;;;;5095418;28;20291;-72
2021/05/14 05:36:20;;;;;;;11.00;5.82;;;18.00;97.00;;;;;;5101678;28;20251;-69
2021/05/14 05:38:49;;;;;;;13.98;6.03;;;18.00;96.50;;;;;;5103978;28;20223;-70
2021/05/14 05:41:16;;;;;;;9.60;5.80;;;18.10;96.40;;;;;;5101607;28;20215;-70
2021/05/14 05:43:43;;;;;;;11.00;6.18;;;18.20;96.20;;;;;;5094135;28;20207;-70
2021/05/14 05:46:09;;;;;;;10.07;6.30;;;18.20;96.00;;;;;;5090200;28;20203;-68
2021/05/14 05:48:35;;;;;;;10.57;6.63;;;18.30;95.90;;;;;;5098897;28;20201;-68
2021/05/14 05:51:02;;;;;;;13.23;7.20;;;18.30;95.70;;;;;;5108860;28;20326;-69
2021/05/14 05:53:28;;;;;;;9.70;6.32;;;18.30;95.70;;;;;;5109243;28;20200;-70
2021/05/14 05:55:55;;;;;;;9.48;6.55;;;18.40;95.80;;;;;;5103587;28;20682;-68
2021/05/14 05:58:23;;;;;;;10.38;5.97;;;18.40;95.90;;;;;;5093745;28;20261;-68
2021/05/14 06:00:49;;;;;;;9.05;6.10;;;18.50;95.90;;;;;;5096827;28;20197;-69
2021/05/14 06:03:16;;;;;;;7.30;6.43;;;18.50;95.80;;;;;;5101144;28;20240;-68
2021/05/14 06:05:42;;;;;;;11.10;6.95;;;18.60;96.00;;;;;;5101577;28;20221;-70
2021/05/14 06:08:09;;;;;;;8.55;6.25;;;18.80;96.00;;;;;;5095674;28;20299;-70
2021/05/14 06:10:35;;;;;;;11.23;6.88;;;18.80;95.80;;;;;;5099398;28;20303;-70
2021/05/14 06:13:03;;;;;;;9.02;7.25;;;19.00;95.60;;;;;;5092809;28;20264;-71
2021/05/14 06:15:30;;;;;;;11.15;7.03;;;19.10;95.60;;;;;;5095042;28;20230;-70
2021/05/14 06:17:56;;;;;;;11.07;6.40;;;19.10;95.40;;;;;;5095506;28;20247;-69
2021/05/14 06:20:25;;;;;;;12.13;7.40;;;19.20;95.50;;;;;;5107497;27;20603;-70
2021/05/14 06:22:52;;;;;;;9.80;7.20;;;19.30;95.60;;;;;;5091082;28;20208;-69
2021/05/14 06:25:19;;;;;;;10.13;7.00;;;19.40;95.50;;;;;;5094868;28;20204;-70
2021/05/14 06:27:45;;;;;;;10.98;6.95;;;19.50;95.90;;;;;;5093821;28;20697;-71
2021/05/14 06:30:16;;;;;;;8.95;6.57;;;19.70;95.40;;;;;;5094639;28;20696;-69
2021/05/14 06:32:42;;;;;;;10.95;8.32;;;19.90;95.10;;;;;;5093933;28;20708;-72
2021/05/14 06:35:10;;;;;;;11.45;7.90;;;20.00;94.50;;;;;;5093265;28;20626;-72
2021/05/14 06:37:37;;;;;;;12.43;8.32;;;20.10;94.10;;;;;;5087728;28;20216;-67
2021/05/14 06:40:05;;;;;;;12.40;6.97;;;20.20;93.70;;;;;;5094428;28;20223;-68
2021/05/14 06:42:33;;;;;;;11.52;6.57;;;20.20;93.40;;;;;;5094471;28;20615;-71
2021/05/14 06:45:00;;;;;;;11.10;7.07;;;20.30;92.90;;;;;;5092285;28;20220;-69
2021/05/14 06:47:27;;;;;;;11.77;7.32;;;20.10;92.90;;;;;;5093175;28;20236;-69
2021/05/14 06:49:54;;;;;;;14.40;6.35;;;20.10;92.50;;;;;;5094065;28;20242;-68
2021/05/14 06:52:20;;;;;;;11.10;6.97;;;20.00;92.80;;;;;;5097573;28;20294;-68
2021/05/14 06:54:47;;;;;;;16.67;7.32;;;19.90;93.20;;;;;;5096811;28;20327;-70
2021/05/14 06:57:13;;;;;;;13.10;7.65;;;19.90;93.20;;;;;;5092890;28;20200;-70
2021/05/14 06:59:39;;;;;;;19.20;7.20;;;19.90;93.10;;;;;;5093619;28;20200;-69
2021/05/14 07:02:06;;;;;;;12.85;7.80;;;19.90;93.00;;;;;;5092609;28;20216;-69
2021/05/14 07:04:33;;;;;;;17.50;7.88;;;19.80;93.20;;;;;;5086468;28;20209;-69
2021/05/14 07:07:00;;;;;;;20.45;8.55;;;19.70;93.20;;;;;;5089665;28;20224;-69
2021/05/14 07:09:26;;;;;;;15.70;7.65;;;19.60;93.70;;;;;;5098099;28;20212;-68
2021/05/14 07:11:52;;;;;;;16.55;8.02;;;19.60;94.10;;;;;;5100231;28;20616;-68
2021/05/14 07:14:19;;;;;;;15.45;8.32;;;19.70;94.20;;;;;;5096262;28;20707;-69
2021/05/14 07:16:45;;;;;;;15.70;8.52;;;19.80;93.80;;;;;;5093631;28;20306;-69
2021/05/14 07:19:13;;;;;;;16.48;7.80;;;19.90;93.90;;;;;;5105419;28;20214;-68
2021/05/14 07:21:41;;;;;;;11.20;7.70;;;19.90;93.30;;;;;;5095704;28;20208;-68
2021/05/14 07:24:08;;;;;;;15.50;8.35;;;20.00;93.00;;;;;;5091106;28;20664;-69
2021/05/14 07:26:36;;;;;;;17.92;8.38;;;20.20;93.00;;;;;;5095580;28;20235;-67
2021/05/14 07:29:03;;;;;;;14.50;9.25;;;20.30;92.60;;;;;;5096171;28;20284;-69
2021/05/14 07:31:30;;;;;;;15.55;8.30;;;20.50;92.60;;;;;;5093254;28;20204;-68
2021/05/14 07:33:56;;;;;;;13.00;8.15;;;20.70;91.90;;;;;;5089040;28;20228;-69
2021/05/14 07:36:24;;;;;;;15.40;6.53;;;20.80;91.30;;;;;;5108384;28;20315;-71
2021/05/14 07:38:52;;;;;;;15.90;6.82;;;21.00;90.60;;;;;;5092743;28;20215;-69
2021/05/14 07:41:18;;;;;;;11.77;5.53;;;21.20;90.00;;;;;;5099451;28;20653;-69
2021/05/14 07:43:45;;;;;;;12.52;7.50;;;21.30;88.00;;;;;;5095996;28;20661;-70
2021/05/14 07:46:11;;;;;;;10.27;5.82;;;21.40;86.80;;;;;;5099337;28;20229;-70
2021/05/14 07:48:38;;;;;;;10.95;5.72;;;21.50;86.10;;;;;;5102580;28;20223;-69
2021/05/14 07:51:04;;;;;;;9.63;5.63;;;21.60;84.20;;;;;;5095802;28;20236;-70
2021/05/14 07:53:31;;;;;;;14.25;6.95;;;21.70;83.80;;;;;;5106585;28;20303;-71
2021/05/14 07:55:58;;;;;;;10.90;6.60;;;21.90;82.30;;;;;;5096944;28;20231;-69
2021/05/14 07:58:24;;;;;;;10.68;6.05;;;22.10;81.20;;;;;;5100797;28;20210;-69
2021/05/14 08:00:51;;;;;;;9.20;5.90;;;22.30;80.50;;;;;;5095121;28;20221;-71
2021/05/14 08:03:18;;;;;;;10.40;5.35;;;22.50;78.60;;;;;;5097412;28;20201;-71
2021/05/14 08:05:47;;;;;;;7.35;4.68;;;22.60;75.60;;;;;;5101745;28;20231;-69
2021/05/14 08:08:15;;;;;;;6.22;4.47;;;22.80;73.90;;;;;;5094162;28;20204;-70
2021/05/14 08:10:41;;;;;;;9.18;5.65;;;22.90;73.20;;;;;;5100094;28;20206;-69
2021/05/14 08:13:08;;;;;;;9.02;5.30;;;23.00;72.20;;;;;;5100496;28;20211;-68
2021/05/14 08:15:35;;;;;;;7.25;4.60;;;23.10;71.10;;;;;;5093818;28;20744;-71
2021/05/14 08:18:01;;;;;;;7.30;4.05;;;23.10;69.40;;;;;;5104942;28;20276;-71
2021/05/14 08:20:28;;;;;;;10.60;4.07;;;23.30;67.80;;;;;;5091402;28;20679;-70
2021/05/14 08:22:56;;;;;;;12.43;3.88;;;23.40;66.80;;;;;;5095030;28;20654;-70
2021/05/14 08:25:22;;;;;;;4.80;3.78;;;23.60;65.90;;;;;;5085680;28;20211;-70
2021/05/14 08:27:48;;;;;;;4.53;3.45;;;23.60;63.50;;;;;;5095960;28;20324;-69
2021/05/14 08:30:17;;;;;;;6.57;3.78;;;23.70;62.60;;;;;;5094952;28;20758;-70
2021/05/14 08:32:44;;;;;;;7.45;3.42;;;23.70;61.80;;;;;;5092614;28;20292;-68
2021/05/14 08:35:10;;;;;;;6.70;3.58;;;23.60;61.40;;;;;;5095185;28;20689;-70
2021/05/14 08:37:39;;;;;;;5.35;3.40;;;23.70;61.40;;;;;;5101779;28;20677;-68
2021/05/14 08:40:08;;;;;;;9.90;4.20;;;23.80;60.30;;;;;;5098058;28;20668;-69
2021/05/14 08:42:38;;;;;;;6.85;3.67;;;23.90;59.60;;;;;;5096928;28;20649;-69
2021/05/14 08:45:07;;;;;;;5.63;3.40;;;23.80;59.60;;;;;;5091168;28;20661;-66
2021/05/14 08:47:35;;;;;;;7.80;3.75;;;23.80;59.40;;;;;;5102778;28;20867;-68
2021/05/14 08:50:04;;;;;;;4.20;3.28;;;23.70;59.40;;;;;;5094293;28;20244;-69
2021/05/14 08:52:33;;;;;;;6.43;4.25;;;23.80;58.90;;;;;;5097977;28;20204;-70
2021/05/14 08:55:01;;;;;;;6.28;3.33;;;23.80;59.20;;;;;;5097743;28;20737;-70
2021/05/14 08:57:27;;;;;;;6.05;3.38;;;24.00;59.00;;;;;;5092352;28;20211;-69
2021/05/14 08:59:54;;;;;;;4.00;2.92;;;24.30;58.20;;;;;;5097775;28;20272;-70
2021/05/14 09:02:20;;;;;;;4.53;2.90;;;24.60;57.70;;;;;;5096223;28;20665;-68
2021/05/14 09:04:48;;;;;;;7.38;2.75;;;24.90;57.10;;;;;;5093297;28;20208;-70
2021/05/14 09:07:16;;;;;;;6.85;2.63;;;25.10;55.90;;;;;;5100566;28;20220;-68
2021/05/14 09:10:04;;;;;;;5.80;2.85;;;25.30;54.70;;;;;;5099892;28;20207;-69
2021/05/14 09:12:34;;;;;;;2.75;2.45;;;25.60;53.90;;;;;;5104975;28;20204;-69
2021/05/14 09:15:00;;;;;;;5.18;3.03;;;25.70;52.80;;;;;;5096974;28;20271;-69
2021/05/14 09:17:27;;;;;;;7.03;3.38;;;25.70;52.30;;;;;;5097529;28;20296;-69
2021/05/14 09:19:54;;;;;;;4.95;3.28;;;25.60;52.60;;;;;;5099026;28;20262;-69
2021/05/14 09:22:23;;;;;;;5.85;3.67;;;25.50;52.60;;;;;;5104064;28;20350;-70
2021/05/14 09:24:57;;;;;;;6.10;3.35;;;25.40;52.80;;;;;;5096618;28;20364;-70
2021/05/14 09:27:31;;;;;;;4.70;3.38;;;25.10;52.70;;;;;;5091810;28;20224;-69
2021/05/14 09:29:58;;;;;;;5.15;3.97;;;25.00;53.30;;;;;;5094040;28;20284;-68
2021/05/14 09:32:28;;;;;;;8.25;3.67;;;24.90;55.00;;;;;;5096995;28;20209;-68
2021/05/14 09:34:57;;;;;;;7.80;3.35;;;24.90;55.20;;;;;;5095621;28;20220;-70
2021/05/14 09:37:25;;;;;;;8.48;3.28;;;25.10;54.50;;;;;;5095342;28;20715;-70
2021/05/14 09:40:12;;;;;;;6.35;3.67;;;25.40;53.90;;;;;;5097148;28;20197;-70
2021/05/14 09:42:39;;;;;;;5.47;3.45;;;25.70;53.30;;;;;;5102001;28;20329;-69
2021/05/14 09:45:16;;;;;;;4.25;3.25;;;26.00;52.40;;;;;;5096403;28;20213;-69
2021/05/14 09:47:43;;;;;;;7.15;3.60;;;26.20;50.70;;;;;;5098537;28;20203;-69
2021/05/14 09:50:31;;;;;;;6.00;3.55;;;26.30;50.80;;;;;;5107580;28;20205;-70
2021/05/14 09:53:09;;;;;;;7.88;3.55;;;26.40;51.20;;;;;;5091701;28;20205;-70
2021/05/14 09:55:37;;;;;;;5.13;3.33;;;26.50;50.90;;;;;;5101844;28;20239;-69
2021/05/14 09:58:12;;;;;;;3.47;2.70;;;26.50;50.20;;;;;;5098083;28;20295;-69
2021/05/14 10:00:38;;;;;;;6.03;2.95;;;26.60;50.20;;;;;;5089694;28;20200;-70
2021/05/14 10:03:06;;;;;;;4.10;3.15;;;26.70;49.70;;;;;;5090747;28;20215;-70
2021/05/14 10:05:36;;;;;;;3.60;2.42;;;26.70;49.10;;;;;;5102161;28;20291;-69
2021/05/14 10:08:04;;;;;;;7.28;2.28;;;26.60;48.70;;;;;;5094502;28;20200;-69
2021/05/14 10:10:31;;;;;;;4.32;2.13;;;26.50;48.70;;;;;;5097078;28;20269;-70
2021/05/14 10:12:58;;;;;;;3.38;1.65;;;26.60;48.00;;;;;;5094624;28;20268;-70
2021/05/14 10:15:26;;;;;;;4.35;1.90;;;26.80;47.10;;;;;;5092613;28;20205;-69
2021/05/14 10:17:54;;;;;;;3.47;2.00;;;27.00;46.00;;;;;;5091768;28;20211;-69
2021/05/14 10:20:25;;;;;;;2.33;2.17;;;27.30;45.20;;;;;;5095039;28;20215;-69
2021/05/14 10:22:54;;;;;;;2.08;1.80;;;27.50;44.80;;;;;;5096580;28;20350;-69
2021/05/14 10:25:44;;;;;;;3.50;1.90;;;27.50;43.90;;;;;;5091729;28;20204;-69
2021/05/14 10:28:11;;;;;;;2.72;1.90;;;27.50;44.30;;;;;;5099744;28;20244;-70
2021/05/14 10:31:00;;;;;;;3.00;1.65;;;27.50;43.90;;;;;;5102117;28;20231;-69
2021/05/14 10:33:40;;;;;;;4.00;1.92;;;27.60;43.20;;;;;;5104166;28;20280;-69
2021/05/14 10:36:32;;;;;;;1.73;1.60;;;27.80;42.90;;;;;;5096616;28;20224;-71
2021/05/14 10:39:04;;;;;;;2.95;1.70;;;27.90;42.70;;;;;;5094723;28;20201;-71
2021/05/14 10:41:30;;;;;;;3.40;1.90;;;27.80;42.10;;;;;;5094493;28;20291;-68
2021/05/14 10:44:02;;;;;;;2.22;1.75;;;27.70;42.30;;;;;;5095139;28;20556;-69
2021/05/14 10:46:30;;;;;;;2.47;1.73;;;27.90;42.30;;;;;;5094623;28;20295;-71
2021/05/14 10:49:01;;;;;;;3.58;1.88;;;28.10;42.80;;;;;;5094838;28;20284;-70
2021/05/14 10:52:02;;;;;;;3.38;2.25;;;28.10;41.50;;;;;;5094704;28;20285;-70
2021/05/14 10:54:51;;;;;;;3.50;1.70;;;28.00;41.80;;;;;;5082164;28;20664;-66
2021/05/14 10:57:47;;;;;;;2.05;1.85;;;28.00;41.60;;;;;;5092776;28;20243;-68
2021/05/14 11:00:32;;;;;;;2.25;2.05;;;28.20;41.70;;;;;;5093001;28;20204;-68
2021/05/14 11:03:18;;;;;;;2.47;2.20;;;28.50;41.10;;;;;;5090130;28;20208;-66
2021/05/14 11:05:48;;;;;;;6.25;3.75;;;28.80;41.00;;;;;;5094818;28;20636;-70
2021/05/14 11:08:39;;;;;;;5.47;2.78;;;29.00;41.30;;;;;;5094047;28;20295;-70
2021/05/14 11:11:10;;;;;;;3.80;2.28;;;29.30;41.30;;;;;;5100209;28;20196;-71
2021/05/14 11:13:38;;;;;;;6.57;2.53;;;29.50;40.90;;;;;;5095582;28;20267;-72
2021/05/14 11:16:30;;;;;;;6.40;2.53;;;29.50;40.60;;;;;;5086812;28;20229;-73
2021/05/14 11:18:57;;;;;;;4.00;2.78;;;29.50;41.10;;;;;;5094005;28;20208;-71
2021/05/14 11:21:36;;;;;;;8.57;3.10;;;29.40;40.90;;;;;;5093001;28;20249;-71
2021/05/14 11:24:06;;;;;;;6.35;2.55;;;29.30;40.60;;;;;;5100162;28;20204;-69
2021/05/14 11:26:34;;;;;;;7.47;2.70;;;29.30;40.20;;;;;;5088412;28;20265;-69
2021/05/14 11:29:00;;;;;;;5.93;2.90;;;29.20;40.00;;;;;;5092059;28;20291;-68
2021/05/14 11:31:26;;;;;;;5.15;3.05;;;28.90;40.70;;;;;;5092706;28;20228;-67
2021/05/14 11:33:54;;;;;;;4.80;3.40;;;28.60;41.70;;;;;;5093988;28;20276;-70
2021/05/14 11:36:21;;;;;;;3.95;2.83;;;28.30;42.80;;;;;;5095082;28;20343;-69
2021/05/14 11:38:49;;;;;;;5.55;2.97;;;28.20;43.90;;;;;;5092066;28;20197;-69
2021/05/14 11:41:16;;;;;;;3.97;2.55;;;28.10;44.10;;;;;;5093613;28;20205;-69
2021/05/14 11:43:54;;;;;;;6.32;3.03;;;28.00;44.60;;;;;;5093471;28;20273;-70
2021/05/14 11:46:24;;;;;;;4.78;3.25;;;28.00;45.10;;;;;;5094404;28;20679;-69
2021/05/14 11:48:50;;;;;;;5.90;2.95;;;27.70;45.90;;;;;;5088215;28;20212;-69
2021/05/14 11:51:17;;;;;;;9.10;3.00;;;27.50;46.60;;;;;;5096181;28;20213;-71
2021/05/14 11:53:43;;;;;;;5.30;2.97;;;27.30;46.50;;;;;;5105588;28;20216;-68
2021/05/14 11:56:11;;;;;;;3.22;2.92;;;27.10;46.80;;;;;;5094288;28;20249;-70
2021/05/14 11:58:39;;;;;;;5.03;3.33;;;26.90;46.60;;;;;;5095643;28;20208;-69
2021/05/14 12:01:07;;;;;;;3.78;3.30;;;26.80;46.10;;;;;;5095747;28;20208;-71
2021/05/14 12:03:33;;;;;;;6.15;3.15;;;26.50;46.40;;;;;;5096431;28;20702;-69
2021/05/14 12:06:04;;;;;;;6.93;3.20;;;26.30;48.50;;;;;;5089270;28;20292;-68
2021/05/14 12:08:31;;;;;;;5.68;3.33;;;26.10;48.10;;;;;;5096300;28;20205;-68
2021/05/14 12:11:01;;;;;;;5.18;3.33;;;25.90;48.40;;;;;;5096072;28;20625;-69
2021/05/14 12:13:28;;;;;;;9.82;4.10;;;25.70;47.90;;;;;;5092973;28;20319;-69
2021/05/14 12:15:59;;;;;;;7.88;4.45;;;25.60;48.10;;;;;;5095860;28;20258;-70
2021/05/14 12:18:28;;;;;;;6.82;3.97;;;25.40;49.40;;;;;;5096307;28;20212;-69
2021/05/14 12:20:56;;;;;;;7.70;3.92;;;25.30;50.20;;;;;;5090750;28;20205;-71
2021/05/14 12:23:24;;;;;;;5.85;3.70;;;25.30;50.70;;;;;;5101706;28;20208;-69
2021/05/14 12:25:53;;;;;;;5.57;3.65;;;25.40;51.00;;;;;;5087690;28;20215;-68
2021/05/14 12:28:37;;;;;;;8.88;4.53;;;25.40;50.60;;;;;;5094887;28;20244;-70
2021/05/14 12:31:05;;;;;;;5.07;3.88;;;25.50;51.40;;;;;;5107097;28;20207;-69
2021/05/14 12:33:33;;;;;;;4.93;3.45;;;25.50;51.60;;;;;;5096112;28;20300;-73
2021/05/14 12:36:06;;;;;;;7.68;3.60;;;25.50;51.80;;;;;;5097327;28;20637;-72
2021/05/14 12:38:44;;;;;;;7.20;3.45;;;25.40;52.00;;;;;;5096207;28;20217;-72
2021/05/14 12:41:34;;;;;;;5.47;3.25;;;25.30;52.20;;;;;;5076100;28;20666;-71
2021/05/14 12:44:12;;;;;;;6.35;3.38;;;25.30;52.40;;;;;;5085705;28;20248;-71
2021/05/14 12:46:58;;;;;;;5.07;3.40;;;25.30;52.20;;;;;;5095959;28;20240;-69
2021/05/14 12:49:26;;;;;;;3.70;3.28;;;25.30;52.40;;;;;;5095949;28;20241;-68
2021/05/14 12:52:00;;;;;;;7.32;3.55;;;25.30;52.30;;;;;;5095138;28;20205;-71
2021/05/14 12:54:29;;;;;;;9.40;3.33;;;25.30;52.30;;;;;;5094872;28;20706;-70